createdAt,value
2024-04-23T00:01:46.377Z,38.1
2024-04-23T00:06:46.818Z,38
2024-04-23T00:11:47.367Z,38
2024-04-23T00:16:47.905Z,37.9
2024-04-23T00:21:48.347Z,37.9
2024-04-23T00:26:48.744Z,37.9
2024-04-23T00:31:49.167Z,37.8
2024-04-23T00:36:49.604Z,37.8
2024-04-23T00:41:50.001Z,37.7
2024-04-23T00:46:50.469Z,37.7
2024-04-23T00:51:51.048Z,37.7
2024-04-23T00:56:51.537Z,37.6
2024-04-23T01:01:51.990Z,37.6
2024-04-23T01:06:52.525Z,37.6
2024-04-23T01:11:52.930Z,37.6
2024-04-23T01:16:53.615Z,37.5
2024-04-23T01:21:54.138Z,37.5
2024-04-23T01:26:54.535Z,37.4
2024-04-23T01:31:54.937Z,37.4
2024-04-23T01:36:55.347Z,37.4
2024-04-23T01:41:55.717Z,37.4
2024-04-23T01:46:56.154Z,37.3
2024-04-23T01:51:56.625Z,37.3
2024-04-23T01:56:57.010Z,37.2
2024-04-23T02:01:57.572Z,37.2
2024-04-23T02:06:58.046Z,37.2
2024-04-23T02:11:58.415Z,37.1
2024-04-23T02:17:00.691Z,37.1
2024-04-23T02:22:01.558Z,37.1
2024-04-23T02:27:01.933Z,37.1
2024-04-23T02:32:02.363Z,37
2024-04-23T02:37:02.847Z,37
2024-04-23T02:42:03.310Z,36.9
2024-04-23T02:47:03.777Z,36.9
2024-04-23T02:52:04.214Z,36.9
2024-04-23T02:57:04.673Z,36.9
2024-04-23T03:02:05.190Z,36.8
2024-04-23T03:07:05.751Z,36.8
2024-04-23T03:12:06.308Z,36.7
2024-04-23T03:17:06.750Z,36.7
2024-04-23T03:22:07.191Z,36.7
2024-04-23T03:27:07.556Z,36.7
2024-04-23T03:32:08.164Z,36.6
2024-04-23T03:37:08.712Z,36.6
2024-04-23T03:42:09.122Z,36.6
2024-04-23T03:47:09.696Z,36.6
2024-04-23T03:52:10.316Z,36.5
2024-04-23T03:57:10.825Z,36.5
2024-04-23T04:02:11.299Z,36.4
2024-04-23T04:07:11.807Z,36.4
2024-04-23T04:12:12.204Z,36.4
2024-04-23T04:17:12.693Z,36.3
2024-04-23T04:22:13.233Z,36.3
2024-04-23T04:27:13.623Z,36.2
2024-04-23T04:32:14.292Z,36.2
2024-04-23T04:37:14.754Z,36.2
2024-04-23T04:42:15.154Z,36.2
2024-04-23T04:47:15.622Z,36.1
2024-04-23T04:52:16.068Z,36.1
2024-04-23T04:57:16.498Z,36.1
2024-04-23T05:02:17.068Z,36.1
2024-04-23T05:07:17.483Z,36
2024-04-23T05:12:18.124Z,36
2024-04-23T05:17:18.846Z,36
2024-04-23T05:22:19.377Z,35.9
2024-04-23T05:27:19.768Z,35.9
2024-04-23T05:32:22.328Z,35.9
2024-04-23T05:37:24.001Z,35.8
2024-04-23T05:42:24.385Z,35.8
2024-04-23T05:47:24.966Z,35.8
2024-04-23T05:52:29.500Z,35.7
2024-04-23T05:57:31.128Z,35.7
2024-04-23T06:02:31.541Z,35.7
2024-04-23T06:07:31.970Z,35.7
2024-04-23T06:12:32.462Z,35.6
2024-04-23T06:17:35.922Z,35.6
2024-04-23T06:22:42.707Z,35.6
2024-04-23T06:27:43.173Z,35.6
2024-04-23T06:32:43.650Z,35.5
2024-04-23T06:37:45.108Z,35.5
2024-04-23T06:42:45.496Z,35.5
2024-04-23T06:47:45.884Z,35.4
2024-04-23T06:52:46.427Z,35.4
2024-04-23T06:57:46.932Z,35.4
2024-04-23T07:02:47.319Z,35.4
2024-04-23T07:07:47.909Z,35.3
2024-04-23T07:12:48.386Z,35.3
2024-04-23T07:17:48.821Z,35.2
2024-04-23T07:22:49.323Z,35.2
2024-04-23T07:27:49.776Z,35.2
2024-04-23T07:37:56.204Z,35.1
2024-04-23T07:42:56.578Z,35.1
2024-04-23T07:47:57.148Z,35.1
2024-04-23T07:52:57.753Z,35.1
2024-04-23T07:57:58.318Z,35.1
2024-04-23T08:02:58.740Z,35
2024-04-23T08:07:59.191Z,35
2024-04-23T08:12:59.587Z,34.9
2024-04-23T08:18:00.073Z,34.9
2024-04-23T08:23:00.762Z,34.9
2024-04-23T08:28:01.193Z,34.9
2024-04-23T08:33:01.628Z,34.9
2024-04-23T08:38:02.148Z,34.8
2024-04-23T08:43:02.471Z,34.8
2024-04-23T08:48:02.923Z,34.7
2024-04-23T08:53:03.512Z,34.7
2024-04-23T08:58:04.013Z,34.7
2024-04-23T09:03:04.554Z,34.7
2024-04-23T09:08:05.138Z,34.7
2024-04-23T09:13:05.499Z,34.6
2024-04-23T09:18:06.045Z,34.6
2024-04-23T09:23:06.516Z,34.6
2024-04-23T09:28:07.022Z,34.6
2024-04-23T09:33:07.587Z,34.6
2024-04-23T09:38:08.142Z,34.5
2024-04-23T09:43:09.458Z,34.5
2024-04-23T09:48:09.864Z,34.4
2024-04-23T09:53:10.262Z,34.4
2024-04-23T09:58:10.618Z,34.4
2024-04-23T10:03:11.877Z,34.4
2024-04-23T10:08:15.903Z,34.4
2024-04-23T10:13:17.483Z,34.3
2024-04-23T10:18:17.827Z,34.3
2024-04-23T10:23:18.283Z,34.2
2024-04-23T10:28:18.602Z,34.2
2024-04-23T10:33:19.017Z,34.2
2024-04-23T10:38:19.514Z,34.2
2024-04-23T10:43:19.958Z,34.2
2024-04-23T10:48:20.274Z,34.2
2024-04-23T10:53:20.706Z,34.1
2024-04-23T10:58:21.087Z,34.1
2024-04-23T11:03:21.465Z,34.1
2024-04-23T11:08:21.825Z,34.1
2024-04-23T11:13:22.108Z,34.1
2024-04-23T11:18:22.500Z,34
2024-04-23T11:23:23.027Z,33.9
2024-04-23T11:28:23.336Z,33.8
2024-04-23T11:33:23.707Z,33.8
2024-04-23T11:38:24.251Z,33.7
2024-04-23T11:43:24.595Z,33.7
2024-04-23T11:48:24.949Z,33.7
2024-04-23T11:53:25.312Z,33.7
2024-04-23T11:58:25.579Z,33.7
2024-04-23T12:03:26.040Z,33.6
2024-04-23T12:08:26.363Z,33.6
2024-04-23T12:13:26.697Z,33.6
2024-04-23T12:18:27.039Z,33.6
2024-04-23T12:23:27.588Z,33.6
2024-04-23T12:28:27.909Z,33.5
2024-04-23T12:33:28.254Z,33.5
2024-04-23T12:38:28.708Z,33.5
2024-04-23T12:43:29.883Z,33.4
2024-04-23T12:48:31.099Z,33.4
2024-04-23T12:53:31.463Z,33.4
2024-04-23T12:58:31.810Z,33.4
2024-04-23T13:03:32.267Z,33.4
2024-04-23T13:08:32.708Z,33.3
2024-04-23T13:13:33.145Z,33.3
2024-04-23T13:18:33.474Z,33.3
2024-04-23T13:23:33.926Z,33.3
2024-04-23T13:28:34.394Z,33.2
2024-04-23T13:33:34.695Z,33.2
2024-04-23T13:38:35.052Z,33.2
2024-04-23T13:43:35.408Z,33.2
2024-04-23T13:48:35.800Z,33.2
2024-04-23T13:53:36.171Z,33.1
2024-04-23T13:58:36.561Z,33.1
2024-04-23T14:03:36.967Z,33.1
2024-04-23T14:08:37.491Z,33.1
2024-04-23T14:13:38.029Z,33.1
2024-04-23T14:18:38.515Z,33.1
2024-04-23T14:23:38.796Z,33
2024-04-23T14:28:39.131Z,33
2024-04-23T14:33:39.523Z,33
2024-04-23T14:38:39.963Z,32.9
2024-04-23T14:43:41.306Z,32.9
2024-04-23T14:48:41.968Z,32.9
2024-04-23T14:53:42.578Z,32.9
2024-04-23T14:58:42.936Z,32.9
2024-04-23T15:03:43.501Z,32.8
2024-04-23T15:08:43.838Z,32.8
2024-04-23T15:13:44.192Z,32.8
2024-04-23T15:18:44.606Z,32.8
2024-04-23T15:23:44.976Z,32.7
2024-04-23T15:28:45.460Z,32.7
2024-04-23T15:33:45.799Z,32.7
2024-04-23T15:38:46.227Z,32.7
2024-04-23T15:43:46.541Z,32.7
2024-04-23T15:48:47.114Z,32.7
2024-04-23T15:53:47.630Z,32.6
2024-04-23T15:58:47.956Z,32.6
2024-04-23T16:03:48.297Z,32.6
2024-04-23T16:08:48.733Z,32.6
2024-04-23T16:13:49.185Z,32.6
2024-04-23T16:18:49.639Z,32.5
2024-04-23T16:23:50.177Z,34.5
2024-04-23T16:28:50.774Z,37.2
2024-04-23T16:33:53.523Z,39.9
2024-04-23T16:38:54.343Z,40.6
2024-04-23T16:43:54.871Z,41.6
2024-04-23T16:48:55.556Z,41.4
2024-04-23T16:53:56.183Z,42.3
2024-04-23T16:58:56.800Z,43.8
2024-04-23T17:03:57.692Z,46.1
2024-04-23T17:08:58.523Z,47.7
2024-04-23T17:13:59.262Z,48.1
2024-04-23T17:19:00.122Z,48.1
2024-04-23T17:24:00.916Z,48
2024-04-23T17:29:01.803Z,48
2024-04-23T17:34:03.453Z,47.9
2024-04-23T17:39:04.388Z,47.9
2024-04-23T17:44:05.157Z,47.9
2024-04-23T17:49:05.936Z,47.9
2024-04-23T17:54:06.752Z,47.3
2024-04-23T17:59:07.635Z,47.1
2024-04-23T18:04:08.580Z,47.1
2024-04-23T18:09:12.334Z,47
2024-04-23T18:14:13.364Z,47
2024-04-23T18:19:14.297Z,46.9
2024-04-23T18:24:15.187Z,46.9
2024-04-23T18:29:16.054Z,46.9
2024-04-23T18:34:17.172Z,46.8
2024-04-23T18:39:18.007Z,46.8
2024-04-23T18:44:19.006Z,46.7
2024-04-23T18:49:19.995Z,46.7
2024-04-23T18:54:20.926Z,46.7
2024-04-23T18:59:21.917Z,46.6
2024-04-23T19:04:22.884Z,46.6
2024-04-23T19:09:23.719Z,46.6
2024-04-23T19:14:26.830Z,46.5
2024-04-23T19:19:27.749Z,46.5
2024-04-23T19:24:28.690Z,46.4
2024-04-23T19:29:29.549Z,46.4
2024-04-23T19:34:30.401Z,46.4
2024-04-23T19:39:31.395Z,46.3
2024-04-23T19:44:32.386Z,46.2
2024-04-23T19:49:33.194Z,46.2
2024-04-23T19:54:34.013Z,46.2
2024-04-23T19:59:35.006Z,46.2
2024-04-23T20:04:35.925Z,46.1
2024-04-23T20:09:36.734Z,46.1
2024-04-23T20:14:38.568Z,46
2024-04-23T20:19:39.269Z,45.9
2024-04-23T20:24:39.952Z,45.9
2024-04-23T20:29:40.799Z,45.9
2024-04-23T20:34:41.534Z,45.8
2024-04-23T20:39:42.276Z,45.8
2024-04-23T20:44:42.942Z,45.8
2024-04-23T20:49:43.643Z,45.7
2024-04-23T20:54:44.345Z,45.7
2024-04-23T20:59:45.069Z,45.6
2024-04-23T21:04:45.878Z,45.6
2024-04-23T21:09:46.587Z,45.5
2024-04-23T21:14:47.229Z,45.4
2024-04-23T21:19:47.890Z,45.4
2024-04-23T21:24:48.569Z,45.4
2024-04-23T21:29:49.212Z,45.3
2024-04-23T21:34:49.861Z,45.2
2024-04-23T21:39:50.537Z,45.2
2024-04-23T21:44:51.394Z,45.2
2024-04-23T21:49:52.077Z,45.1
2024-04-23T21:54:52.723Z,45.1
2024-04-23T21:59:54.257Z,45
2024-04-23T22:04:54.916Z,44.9
2024-04-23T22:09:55.700Z,44.9
2024-04-23T22:14:56.333Z,44.9
2024-04-23T22:19:56.936Z,44.8
2024-04-23T22:24:57.706Z,44.7
2024-04-23T22:29:58.340Z,44.7
2024-04-23T22:34:58.951Z,44.7
2024-04-23T22:39:59.578Z,44.6
2024-04-23T22:45:00.353Z,44.6
2024-04-23T22:50:01.109Z,44.5
2024-04-23T22:55:01.847Z,44.4
2024-04-23T23:00:02.435Z,44.4
2024-04-23T23:05:03.114Z,44.4
2024-04-23T23:10:03.927Z,44.3
2024-04-23T23:15:04.520Z,44.2
2024-04-23T23:20:05.400Z,44.2
2024-04-23T23:25:06.083Z,44.1
2024-04-23T23:30:06.669Z,44.1
2024-04-23T23:35:07.274Z,44.1
2024-04-23T23:40:07.902Z,44
2024-04-23T23:45:08.517Z,43.9
2024-04-23T23:50:09.121Z,43.9
2024-04-23T23:55:09.781Z,43.9
